Tiempo atmosférico en la estación meteorológica de Tarifa, Cádiz (32 m.)



Fecha
DESCASC
Temp. máxima en grados centígrados (hora)
DESCASC
Temp. mínima en grados centígrados (hora)
DESCASC
Temp. media en grados centígrados
DESCASC
Racha de viento máxima en m/sg (hora)
DESCASC
Velocidad máxima media en intervalos de 10 minutos(hora)
DESCASC
Precipitaciones diarias en mm
DESCASC
Precipitaciones de 00:00 a 06:00 en mm
DESCASC
Precipitaciones de 06:00 a 12:00 en mm
DESCASC
Precipitaciones de 12:00 a 18:00 en mm
DESCASC
Precipitaciones de 18:00 a 24:00 en mm
DESCASC
23-06-2019 23.6 (13:50) 19.1 (01:30) 21.4 13.61 (17:30) 9.44 (16:20) 0 0 0 0 0
22-06-2019 23.1 (14:30) 14.4 (07:20) 18.8 15.83 (21:10) 10.56 (19:20) 0 0 0 0 0
21-06-2019 20.4 (11:40) 17.7 (06:50) 19.1 11.67 (16:00) 7.78 (18:10) 0 0 0 0 0
20-06-2019 22.1 (16:50) 17.9 (00:00) 20 11.11 (17:30) 7.5 (14:40) 0 0 0 0 0
19-06-2019 22.6 (13:50) 18 (00:00) 20.3 11.67 (18:50) 7.78 (19:20) 0 0 0 0 0
18-06-2019 22 (16:50) 14.6 (00:00) 18.3 10.28 (15:30) 7.22 (14:30) 0 0 0 0 0
17-06-2019 22.8 (19:20) 15.1 (00:00) 18.9 12.78 (17:10) 9.17 (15:50) 0 0 0 0 0
16-06-2019 25.3 (15:10) 14.3 (00:00) 19.8 10 (19:30) 7.22 (19:30) 0 0 0 0 0
15-06-2019 21.7 (14:20) 15.1 (00:00) 18.4 11.94 (17:30) 7.5 (18:00) 0 0 0 0 0
14-06-2019 20.7 (17:20) 17.2 (00:00) 19 14.17 (12:50) 9.17 (06:30) 0 0 0 0 0
13-06-2019 23.9 (15:20) 17.9 (00:00) 20.9 16.11 (00:40) 10.56 (02:30) 0 0 0 0 0
12-06-2019 22.6 (14:30) 16.1 (00:00) 19.4 17.22 (14:50) 11.11 (13:10) 0 0 0 0 0
11-06-2019 21.2 (16:50) 16.4 (00:00) 18.8 13.06 (10:00) 8.33 (09:50) 0 0 0 0 0
10-06-2019 21 (18:00) 16.8 (00:00) 18.9 10.56 (03:20) 7.22 (16:20) 0 0 0 0 0
09-06-2019 21.5 (16:30) 17.8 (00:00) 19.6 10.28 (21:20) 6.94 (16:00) 0 0 0 0 0
08-06-2019 23.3 (15:00) 15.2 (00:00) 19.2 13.33 (18:30) 8.89 (18:30) 0 0 0 0 0
07-06-2019 22 (12:50) 16.9 (00:00) 19.4 10.28 (16:40) 7.5 (16:40) 0 0 0 0 0
06-06-2019 21.8 (14:10) 13.9 (00:00) 17.8 11.94 (17:40) 6.94 (15:40) 0 0 0 0 0
05-06-2019 20.2 (18:00) 15.6 (00:00) 17.9 14.72 (15:10) 9.44 (15:10) 0 0 0 0 0
04-06-2019 21.6 (14:50) 12.2 (00:00) 16.9 9.72 (23:50) 6.67 (16:10) 0 0 0 0 0
03-06-2019 22.2 (14:50) 17.3 (00:00) 19.8 17.78 (01:50) 12.22 (02:30) 0 0 0 0 0
02-06-2019 22.2 (16:10) 18.1 (00:00) 20.2 19.72 (01:10) 12.78 (00:30) 0 0 0 0 0
01-06-2019 21.8 (15:20) 17.7 (00:00) 19.8 21.67 (00:50) 14.72 (18:00) 0 0 0 0 0
31-05-2019 21.7 (14:40) 17.4 (00:00) 19.6 25.28 (11:20) 16.67 (12:40) 0 0 0 0 0
30-05-2019 21.6 (14:10) 17.9 (00:00) 19.8 29.17 (19:50) 16.39 (12:50) 0.1 0 0 0 0.1
29-05-2019 23 (13:30) 16.6 (00:00) 19.8 21.67 (12:50) 14.44 (16:00) 0 0 0 0 0
28-05-2019 24.3 (15:50) 17.5 (00:00) 20.9 7.5 (11:10) 5 (12:10) 0 0 0 0 0
27-05-2019 28.4 (16:40) 18.6 (00:00) 23.5 10.56 (02:10) 6.94 (04:30) 0 0 0 0 0
26-05-2019 22.6 (14:10) 17.7 (00:00) 20.2 15 (12:00) 10.56 (12:50) 0 0 0 0 0

Gráficas

Temp. máximas Temp. mínimas Temp. medias Precipitaciones Rachas de viento máximas Velocidades máximas media en intervalos de 10 minutos

Datos horarios

Fecha y hora oficial Temperatura (ºC) Velocidad del viento (km/h) Dirección del viento Racha (km/h) Dirección de racha Precipitación (mm) Presión (hPa) Tendencia (hPa) Humedad (%)
2019-06-24 23:00:00 19.8 17 Oeste 27 Oeste 0 -- -- 97
2019-06-24 22:00:00 20.1 14 Oeste 29 Oeste 0 -- -- 96
2019-06-24 21:00:00 20.7 18 Oeste 35 Oeste 0 -- -- 92
2019-06-24 20:00:00 21.2 23 Oeste 34 Oeste 0 -- -- 89
2019-06-24 19:00:00 22.9 15 Oeste 31 Oeste 0 -- -- 85
2019-06-24 18:00:00 22.2 20 Oeste 33 Oeste 0 -- -- 85
2019-06-24 17:00:00 22.4 20 Oeste 34 Sudoeste 0 -- -- 83
2019-06-24 16:00:00 22.5 21 Oeste 30 Oeste 0 -- -- 80
2019-06-24 15:00:00 22.6 17 Oeste 27 Oeste 0 -- -- 79
2019-06-24 14:00:00 22.4 19 Sudoeste 27 Oeste 0 -- -- 80
2019-06-24 13:00:00 22.1 14 Sudoeste 24 Oeste 0 -- -- 79
2019-06-24 12:00:00 21.8 15 Sudoeste 22 Oeste 0 -- -- 78
2019-06-24 11:00:00 21.2 11 Sudoeste 16 Sudoeste 0 -- -- 80
2019-06-24 10:00:00 20.5 9 Oeste 14 Oeste 0 -- -- 82
2019-06-24 09:00:00 19.8 6 Noroeste 10 Noroeste 0 -- -- 91
2019-06-24 08:00:00 18.5 5 Noroeste 11 Norte 0 -- -- 97
2019-06-24 07:00:00 18 7 Noroeste 10 Noroeste 0 -- -- 98
2019-06-24 06:00:00 17.3 2 Norte 6 Norte 0 -- -- 97
2019-06-24 05:00:00 16.5 0 Calma -- -- 0 -- -- 96
2019-06-24 04:00:00 16.7 0 Calma -- -- 0 -- -- 95
2019-06-24 03:00:00 17.9 0 Calma 5 Norte 0 -- -- 93
2019-06-24 02:00:00 18.5 0 Calma 12 Oeste 0 -- -- 91
2019-06-24 01:00:00 18.4 4 Norte 10 Nordeste 0 -- -- 90
2019-06-24 00:00:00 19.3 4 Norte 13 Norte 0 -- -- 90
2019-06-23 23:00:00 20 8 Nordeste 21 Nordeste 0 -- -- 83
2019-06-23 22:00:00 20.6 14 Nordeste 36 Este 0 -- -- 80
2019-06-23 21:00:00 20.4 24 Este 37 Este 0 -- -- 84
2019-06-23 20:00:00 21.6 21 Este 35 Este 0 -- -- 78
2019-06-23 19:00:00 22.2 22 Este 42 Este 0 -- -- 74
2019-06-23 18:00:00 22.5 31 Este 49 Este 0 -- -- 76
2019-06-23 17:00:00 22.4 31 Este 45 Este 0 -- -- 77
2019-06-23 16:00:00 21.9 31 Este 46 Este 0 -- -- 80
2019-06-23 15:00:00 22.5 26 Este 45 Este 0 -- -- 77
2019-06-23 14:00:00 22.8 28 Este 38 Este 0 -- -- 76
2019-06-23 13:00:00 22.6 27 Este 42 Este 0 -- -- 76
2019-06-23 12:00:00 22.1 27 Este 41 Este 0 -- -- 74
2019-06-23 11:00:00 21.8 25 Este 37 Este 0 -- -- 82
2019-06-23 10:00:00 21.4 21 Este 36 Este 0 -- -- 85
2019-06-23 09:00:00 20.1 20 Este 34 Este 0 -- -- 94
2019-06-23 08:00:00 19.4 21 Este 36 Este 0 -- -- 95
2019-06-23 07:00:00 19.7 21 Este 37 Este 0 -- -- 92
2019-06-23 06:00:00 19.6 23 Este 39 Nordeste 0 -- -- 94
2019-06-23 05:00:00 19.6 25 Este 39 Este 0 -- -- 94
2019-06-23 04:00:00 19.6 23 Este 37 Este 0 -- -- 92
2019-06-23 03:00:00 19.6 23 Este 37 Este 0 -- -- 92
2019-06-23 02:00:00 19.3 22 Este 42 Este 0 -- -- 96
2019-06-23 01:00:00 19.8 21 Este 40 Este 0 -- -- 89
2019-06-23 00:00:00 19.9 19 Nordeste 38 Nordeste 0 -- -- 89
2019-06-22 23:00:00 20.2 21 Este 48 Este 0 -- -- 86
2019-06-22 22:00:00 20.1 29 Este 57 Este 0 -- -- 82
2019-06-22 21:00:00 20.7 33 Este 52 Este 0 -- -- 72
2019-06-22 20:00:00 21.3 33 Este 52 Este 0 -- -- 72
2019-06-22 19:00:00 21 36 Este 50 Este 0 -- -- 77
2019-06-22 18:00:00 21.3 28 Este 51 Este 0 -- -- 79
2019-06-22 17:00:00 21.9 28 Este 50 Este 0 -- -- 77
2019-06-22 16:00:00 21.9 33 Este 51 Este 0 -- -- 77
2019-06-22 15:00:00 21.1 27 Este 41 Este 0 -- -- 78
2019-06-22 14:00:00 20.6 26 Este 40 Este 0 -- -- 84
2019-06-22 13:00:00 19.9 27 Este 48 Este 0 -- -- 88
2019-06-22 12:00:00 19.8 32 Este 43 Este 0 -- -- 86
2019-06-22 11:00:00 20.7 27 Este 45 Este 0 -- -- 80
2019-06-22 10:00:00 20.7 27 Este 40 Este 0 -- -- 79
2019-06-22 09:00:00 19.8 21 Este 39 Este 0 -- -- 83
2019-06-22 08:00:00 15.4 4 Nordeste 10 Este 0 -- -- 96
2019-06-22 07:00:00 14.5 5 Nordeste 10 Nordeste 0 -- -- 96
2019-06-22 06:00:00 15.6 5 Norte 13 Nordeste 0 -- -- 96
2019-06-22 05:00:00 16.1 8 Norte 13 Noroeste 0 -- -- 96
2019-06-22 04:00:00 16.7 7 Norte 14 Noroeste 0 -- -- 96
2019-06-22 03:00:00 16.9 8 Noroeste 13 Oeste 0 -- -- 96
2019-06-22 02:00:00 17.8 8 Oeste 18 Oeste 0 -- -- 95
2019-06-22 01:00:00 17.9 10 Oeste 25 Oeste 0 -- -- 94
2019-06-22 00:00:00 18 15 Oeste 25 Oeste 0 -- -- 92
2019-06-21 23:00:00 18.1 17 Oeste 30 Oeste 0 -- -- 90
2019-06-21 22:00:00 18.3 19 Oeste 33 Oeste 0 -- -- 88
2019-06-21 21:00:00 19 23 Oeste 32 Oeste 0 -- -- 80
2019-06-21 20:00:00 19.5 20 Oeste 35 Oeste 0 -- -- 76
2019-06-21 19:00:00 20.1 22 Oeste 39 Oeste 0 -- -- 74
2019-06-21 18:00:00 20 26 Oeste 40 Oeste 0 -- -- 76
2019-06-21 17:00:00 20 23 Oeste 37 Oeste 0 -- -- 75
2019-06-21 16:00:00 20 22 Oeste 42 Oeste 0 -- -- 76
2019-06-21 15:00:00 19.4 19 Oeste 36 Oeste 0 -- -- 78
2019-06-21 14:00:00 19.7 23 Oeste 35 Oeste 0 -- -- 77
2019-06-21 13:00:00 19.5 26 Oeste 36 Oeste 0 -- -- 79
2019-06-21 12:00:00 19.6 25 Oeste 34 Oeste 0 -- -- 79
2019-06-21 11:00:00 19.7 21 Oeste 33 Sudoeste 0 -- -- 83
2019-06-21 10:00:00 19.2 25 Sudoeste 36 Sudoeste 0 -- -- 86
2019-06-21 09:00:00 18.6 20 Sudoeste 30 Sudoeste 0 -- -- 88
2019-06-21 08:00:00 18.2 16 Sudoeste 27 Sudoeste 0 -- -- 89
2019-06-21 07:00:00 17.8 17 Sudoeste 28 Sudoeste 0 -- -- 90
2019-06-21 06:00:00 18 18 Sudoeste 30 Oeste 0 -- -- 91
2019-06-21 05:00:00 18.3 22 Sudoeste 35 Sudoeste 0 -- -- 89
2019-06-21 04:00:00 18.3 20 Sudoeste 36 Sudoeste 0 -- -- 91
2019-06-21 03:00:00 18.3 17 Sudoeste 32 Sudoeste 0 -- -- 91
2019-06-21 02:00:00 18.4 18 Sudoeste 28 Oeste 0 -- -- 91
2019-06-21 01:00:00 18.6 20 Oeste 30 Oeste 0 -- -- 90
2019-06-21 00:00:00 18.6 18 Oeste 29 Oeste 0 -- -- 90
2019-06-20 23:00:00 18.6 16 Oeste 29 Oeste 0 -- -- 92
2019-06-20 22:00:00 18.6 15 Oeste 31 Oeste 0 -- -- 88
2019-06-20 21:00:00 19.5 14 Oeste 33 Oeste 0 -- -- 84
2019-06-20 20:00:00 20 26 Oeste 37 Oeste 0 -- -- 84
2019-06-20 19:00:00 20.3 26 Oeste 37 Oeste 0 -- -- 80
2019-06-20 18:00:00 21.1 24 Oeste 40 Oeste 0 -- -- 78
2019-06-20 17:00:00 21.2 23 Oeste 35 Oeste 0 -- -- 77
2019-06-20 16:00:00 20.6 27 Oeste 36 Oeste 0 -- -- 79
2019-06-20 15:00:00 20.7 27 Oeste 37 Oeste 0 -- -- 78
2019-06-20 14:00:00 20.4 26 Oeste 36 Oeste 0 -- -- 74
2019-06-20 13:00:00 21.1 17 Oeste 31 Oeste 0 -- -- 76
2019-06-20 12:00:00 20.6 17 Oeste 31 Oeste 0 -- -- 79
2019-06-20 11:00:00 20.5 14 Oeste 30 Sudoeste 0 -- -- 80
2019-06-20 10:00:00 19.4 17 Oeste 28 Oeste 0 -- -- 85
2019-06-20 09:00:00 18.6 17 Oeste 28 Oeste 0 -- -- 89
2019-06-20 08:00:00 18.5 17 Oeste 28 Oeste 0 -- -- 93
2019-06-20 07:00:00 18.3 19 Oeste 29 Oeste 0 -- -- 96
2019-06-20 06:00:00 18.2 12 Oeste 22 Oeste 0 -- -- 97
2019-06-20 05:00:00 18.1 14 Oeste 26 Oeste 0 -- -- 96
2019-06-20 04:00:00 18 16 Oeste 27 Oeste 0 -- -- 98
2019-06-20 03:00:00 18.2 16 Noroeste 27 Noroeste 0 -- -- 99
2019-06-20 02:00:00 18.5 12 Oeste 23 Oeste 0 -- -- 92
2019-06-20 01:00:00 18.7 14 Oeste 25 Oeste 0 -- -- 92
2019-06-20 00:00:00 19.3 15 Noroeste 30 Noroeste 0 -- -- 86
2019-06-19 23:00:00 19.3 18 Oeste 33 Oeste 0 -- -- 89
2019-06-19 22:00:00 19.2 21 Oeste 34 Oeste 0 -- -- 92
2019-06-19 21:00:00 19.9 19 Oeste 36 Sudoeste 0 -- -- 89
2019-06-19 20:00:00 20.3 26 Oeste 41 Oeste 0 -- -- 88
2019-06-19 19:00:00 20.7 27 Oeste 42 Oeste 0 -- -- 83
2019-06-19 18:00:00 21.1 24 Oeste 39 Oeste 0 -- -- 80
2019-06-19 17:00:00 21.6 19 Oeste 39 Oeste 0 -- -- 77
2019-06-19 16:00:00 21.7 25 Sudoeste 38 Sudoeste 0 -- -- 78
2019-06-19 15:00:00 22 22 Sudoeste 36 Oeste 0 -- -- 74
2019-06-19 14:00:00 21.7 19 Oeste 36 Oeste 0 -- -- 77
2019-06-19 13:00:00 21.1 21 Oeste 36 Oeste 0 -- -- 82
2019-06-19 12:00:00 20.6 20 Oeste 32 Oeste 0 -- -- 85
2019-06-19 11:00:00 20.2 18 Oeste 30 Oeste 0 -- -- 89
2019-06-19 10:00:00 19.6 15 Oeste 27 Oeste 0 -- -- 89
2019-06-19 09:00:00 18.9 13 Oeste 22 Oeste 0 -- -- 92
2019-06-19 08:00:00 18.3 13 Oeste 27 Oeste 0 -- -- 95
2019-06-19 07:00:00 18.2 18 Oeste 25 Oeste 0 -- -- 97
2019-06-19 06:00:00 18.2 18 Oeste 28 Oeste 0 -- -- 97
2019-06-19 05:00:00 18.3 12 Oeste 24 Oeste 0 -- -- 98
2019-06-19 04:00:00 18.2 13 Oeste 21 Oeste 0 -- -- 97
2019-06-19 03:00:00 18.5 13 Oeste 22 Oeste 0 -- -- 96
2019-06-19 02:00:00 18.7 13 Oeste 23 Oeste 0 -- -- 96
2019-06-19 01:00:00 18.3 14 Oeste 23 Oeste 0 -- -- 96
2019-06-19 00:00:00 18.5 15 Oeste 27 Oeste 0 -- -- 96
2019-06-18 23:00:00 18.7 18 Oeste 33 Oeste 0 -- -- 94
2019-06-18 22:00:00 18.9 21 Oeste 32 Sudoeste 0 -- -- 91
2019-06-18 21:00:00 19.7 20 Oeste 34 Oeste 0 -- -- 84
2019-06-18 20:00:00 20.3 19 Oeste 34 Noroeste 0 -- -- 77
2019-06-18 19:00:00 20.9 19 Oeste 35 Oeste 0 -- -- 73
2019-06-18 18:00:00 20.9 22 Oeste 35 Oeste 0 -- -- 72
2019-06-18 17:00:00 21 22 Oeste 35 Oeste 0 -- -- 69
2019-06-18 16:00:00 21.7 20 Oeste 37 Oeste 0 -- -- 66
2019-06-18 15:00:00 21 24 Oeste 37 Sudoeste 0 -- -- 70
2019-06-18 14:00:00 20.9 18 Oeste 32 Sudoeste 0 -- -- 66
2019-06-18 13:00:00 21.3 18 Oeste 31 Oeste 0 -- -- 66
2019-06-18 12:00:00 19.5 17 Oeste 29 Oeste 0 -- -- 68
2019-06-18 11:00:00 19.6 18 Oeste 26 Oeste 0 -- -- 70
2019-06-18 10:00:00 19 15 Oeste 24 Sudoeste 0 -- -- 72
2019-06-18 09:00:00 17.7 9 Oeste 15 Oeste 0 -- -- 85
2019-06-18 08:00:00 16.8 8 Noroeste 14 Norte 0 -- -- 89
2019-06-18 07:00:00 15.9 9 Norte 13 Noroeste 0 -- -- 95
2019-06-18 06:00:00 15.7 6 Noroeste 11 Noroeste 0 -- -- 95
2019-06-18 05:00:00 15.9 6 Noroeste 9 Noroeste 0 -- -- 95
2019-06-18 04:00:00 15.3 6 Noroeste 10 Noroeste 0 -- -- 96
2019-06-18 03:00:00 14.8 3 Noroeste 6 Norte 0 -- -- 96
2019-06-18 02:00:00 14.9 2 Norte 6 Norte 0 -- -- 95
2019-06-18 01:00:00 16 4 Norte 10 Norte 0 -- -- 94
2019-06-18 00:00:00 16.1 6 Norte 16 Norte 0 -- -- 92
2019-06-17 23:00:00 17.4 3 Norte 12 Este 0 -- -- 89
2019-06-17 22:00:00 18.5 5 Norte 13 Sudoeste 0 -- -- 85
2019-06-17 21:00:00 20.1 5 Sudoeste 14 Sudoeste 0 -- -- 80
2019-06-17 20:00:00 21.4 7 Oeste 19 Este 0 -- -- 76
2019-06-17 19:00:00 21.9 16 Este -- -- 0 -- -- 73
2019-06-17 18:00:00 21.3 30 Este 46 Este 0 -- -- 76
2019-06-17 17:00:00 21.4 30 Este 42 Este 0 -- -- 76
2019-06-17 16:00:00 21.7 28 Este 43 Este 0 -- -- 74
2019-06-17 15:00:00 21.9 25 Este 38 Este 0 -- -- 71
2019-06-17 14:00:00 21.5 27 Este 37 Este 0 -- -- 73
2019-06-17 13:00:00 20.5 23 Este 31 Este 0 -- -- 76
2019-06-17 12:00:00 20.5 22 Este 29 Este 0 -- -- 79
2019-06-17 11:00:00 19.9 14 Este 19 Este 0 -- -- 84
2019-06-17 10:00:00 19.4 13 Este 19 Este 0 -- -- 84
2019-06-17 09:00:00 18.3 5 Este 15 Este 0 -- -- 85
2019-06-17 08:00:00 16.9 10 Este 14 Este 0 -- -- 94
2019-06-17 07:00:00 15.2 5 Nordeste 11 Este 0 -- -- 94
2019-06-17 06:00:00 16.3 8 Este 12 Este 0 -- -- 86
2019-06-17 05:00:00 15.7 7 Nordeste 16 Nordeste 0 -- -- 86
2019-06-17 04:00:00 16.3 10 Nordeste 18 Este 0 -- -- 89
2019-06-17 03:00:00 17.1 12 Este 19 Este 0 -- -- 84
2019-06-17 02:00:00 16.2 12 Este 15 Este 0 -- -- 76
2019-06-17 01:00:00 16.2 8 Nordeste 14 Nordeste 0 -- -- 78
2019-06-17 00:00:00 16.8 10 Nordeste 18 Nordeste 0 -- -- 80
2019-06-16 23:00:00 18.1 9 Nordeste 21 Nordeste 0 -- -- 70
2019-06-16 22:00:00 19 12 Nordeste 21 Nordeste 0 -- -- 68
2019-06-16 21:00:00 20.2 12 Nordeste 27 Este 0 -- -- 73
2019-06-16 20:00:00 20.4 20 Este 36 Este 0 -- -- 68
2019-06-16 19:00:00 21.6 21 Este 32 Este 0 -- -- 59
2019-06-16 18:00:00 22.4 21 Este 32 Este 0 -- -- 51
2019-06-16 17:00:00 23.4 22 Este 32 Este 0 -- -- 48
2019-06-16 16:00:00 24.2 21 Este 33 Este 0 -- -- 43
2019-06-16 15:00:00 24.5 18 Este 29 Este 0 -- -- 42
2019-06-16 14:00:00 23.8 19 Este 25 Este 0 -- -- 51
2019-06-16 13:00:00 22.7 12 Este 23 Este 0 -- -- 59
2019-06-16 12:00:00 21 15 Este 22 Este 0 -- -- 72
2019-06-16 11:00:00 19.2 6 Sudeste 9 Sudeste 0 -- -- 79
2019-06-16 10:00:00 18.4 7 Sudeste 12 Sudeste 0 -- -- 82
2019-06-16 09:00:00 18.3 5 Este 8 Este 0 -- -- 84
2019-06-16 08:00:00 15.1 6 Nordeste 12 Nordeste 0 -- -- 92
2019-06-16 07:00:00 14.6 4 Norte 6 Norte 0 -- -- 89
2019-06-16 06:00:00 15.5 0 Calma 10 Noroeste 0 -- -- 83
2019-06-16 05:00:00 15 5 Noroeste 11 Noroeste 0 -- -- 84
2019-06-16 04:00:00 15.5 6 Noroeste 10 Noroeste 0 -- -- 84
2019-06-16 03:00:00 14.9 3 Norte 12 Sudoeste 0 -- -- 84
2019-06-16 02:00:00 16.8 8 Oeste 16 Oeste 0 -- -- 79
2019-06-16 01:00:00 17.3 3 Oeste 18 Oeste 0 -- -- 77
2019-06-16 00:00:00 17.9 8 Oeste 20 Oeste 0 -- -- 78
2019-06-15 23:00:00 18.2 14 Oeste 27 Oeste 0 -- -- 83
2019-06-15 22:00:00 18.3 19 Oeste 35 Oeste 0 -- -- 83
2019-06-15 21:00:00 19.2 22 Oeste 39 Oeste 0 -- -- 76
2019-06-15 20:00:00 19.7 26 Oeste 42 Oeste 0 -- -- 71
2019-06-15 19:00:00 20.4 22 Oeste 41 Sudoeste 0 -- -- 67
2019-06-15 18:00:00 20.7 27 Oeste 43 Oeste 0 -- -- 68
2019-06-15 17:00:00 21 22 Oeste 41 Oeste 0 -- -- 71
2019-06-15 16:00:00 20.9 24 Oeste 37 Oeste 0 -- -- 73
2019-06-15 15:00:00 20.4 17 Sudoeste 31 Sudoeste 0 -- -- 71
2019-06-15 14:00:00 21.2 18 Sudoeste 31 Oeste 0 -- -- 67
2019-06-15 13:00:00 20.6 15 Oeste 28 Oeste 0 -- -- 68
2019-06-15 12:00:00 18.8 18 Oeste 23 Oeste 0 -- -- 66
2019-06-15 11:00:00 18.2 15 Oeste 24 Sudoeste 0 -- -- 68
2019-06-15 10:00:00 17.5 12 Oeste 22 Oeste 0 -- -- 66
2019-06-15 09:00:00 16.3 11 Noroeste 19 Noroeste 0 -- -- 68
2019-06-15 08:00:00 15.2 12 Noroeste 22 Oeste 0 -- -- 73
2019-06-15 07:00:00 15.5 12 Oeste 19 Noroeste 0 -- -- 76
2019-06-15 06:00:00 15.7 8 Noroeste 14 Noroeste 0 -- -- 80
2019-06-15 05:00:00 16.6 9 Oeste 17 Oeste 0 -- -- 78
2019-06-15 04:00:00 16.5 9 Noroeste 18 Noroeste 0 -- -- 78
2019-06-15 03:00:00 16.3 11 Noroeste 19 Oeste 0 -- -- 74
2019-06-15 02:00:00 16.2 12 Noroeste 19 Noroeste 0 -- -- 72
2019-06-15 01:00:00 16.3 10 Noroeste 25 Noroeste 0 -- -- 68
2019-06-15 00:00:00 17.3 15 Noroeste 33 Oeste 0 -- -- 70
2019-06-14 23:00:00 17.8 17 Oeste 35 Oeste 0 -- -- 72
2019-06-14 22:00:00 18 22 Oeste 32 Oeste 0 -- -- 70
2019-06-14 21:00:00 18.4 19 Oeste 35 Oeste 0 -- -- 68
2019-06-14 20:00:00 19.4 19 Oeste 35 Oeste 0 -- -- 64
2019-06-14 19:00:00 19.1 22 Oeste 36 Oeste 0 -- -- 64
2019-06-14 18:00:00 20 23 Oeste 38 Oeste 0 -- -- 60
2019-06-14 17:00:00 19.3 23 Oeste 39 Oeste 0 -- -- 56
2019-06-14 16:00:00 20.3 24 Oeste 43 Oeste 0 -- -- 56
2019-06-14 15:00:00 19.5 28 Oeste 44 Oeste 0 -- -- 58
2019-06-14 14:00:00 19.7 22 Oeste 45 Oeste 0 -- -- 56
2019-06-14 13:00:00 19 30 Oeste 51 Oeste 0 -- -- 60
2019-06-14 12:00:00 19.1 29 Oeste 45 Oeste 0 -- -- 67
2019-06-14 11:00:00 18.7 26 Oeste 44 Oeste 0 -- -- 71
2019-06-14 10:00:00 17.9 27 Oeste 42 Sudoeste 0 -- -- 74
2019-06-14 09:00:00 18.1 28 Sudoeste 45 Sudoeste 0 -- -- 67
2019-06-14 08:00:00 17.4 28 Sudoeste 48 Oeste 0 -- -- 71
2019-06-14 07:00:00 17.3 31 Sudoeste 47 Sudoeste 0 -- -- 70
2019-06-14 06:00:00 17.4 30 Sudoeste 47 Sudoeste 0 -- -- 72
2019-06-14 05:00:00 17.4 29 Sudoeste 48 Sudoeste 0 -- -- 77
2019-06-14 04:00:00 17.6 27 Sudoeste 39 Sudoeste 0 -- -- 80
2019-06-14 03:00:00 18.2 19 Sudoeste 32 Sudoeste 0 -- -- 82
2019-06-14 02:00:00 18.6 21 Sudoeste 32 Sudoeste 0 -- -- 83
2019-06-14 01:00:00 18.9 13 Oeste 23 Oeste 0 -- -- 85
2019-06-14 00:00:00 18.7 13 Sudoeste 27 Oeste 0 -- -- 86
2019-06-13 23:00:00 18.9 18 Oeste 31 Oeste 0 -- -- 83
2019-06-13 22:00:00 20.2 6 Noroeste 16 Este 0 -- -- 83
2019-06-13 21:00:00 19.9 13 Este 24 Este 0 -- -- 85
2019-06-13 20:00:00 21 17 Este 29 Este 0 -- -- 79
2019-06-13 19:00:00 21.8 20 Este 37 Este 0 -- -- 75
2019-06-13 18:00:00 22.1 24 Este 37 Este 0 -- -- 74
2019-06-13 17:00:00 22.5 27 Este 42 Este 0 -- -- 73
2019-06-13 16:00:00 22.9 27 Este 41 Este 0 -- -- 72
2019-06-13 15:00:00 23.8 21 Este 44 Este 0 -- -- 71
2019-06-13 14:00:00 22.5 28 Este 44 Este 0 -- -- 76
2019-06-13 13:00:00 22.9 24 Este 55 Este 0 -- -- 76
2019-06-13 12:00:00 22 30 Este 49 Este 0 -- -- 78
2019-06-13 11:00:00 21.3 30 Este 47 Este 0 -- -- 80
2019-06-13 10:00:00 20.8 25 Este 46 Este 0 -- -- 80
2019-06-13 09:00:00 19.3 23 Este 42 Este 0 -- -- 88
2019-06-13 08:00:00 18.6 22 Nordeste 44 Nordeste 0 -- -- 89
2019-06-13 07:00:00 18.8 25 Nordeste 46 Nordeste 0 -- -- 86
2019-06-13 06:00:00 18.7 25 Nordeste 47 Nordeste 0 -- -- 85
2019-06-13 05:00:00 18.9 27 Nordeste 53 Nordeste 0 -- -- 85
2019-06-13 04:00:00 18.3 31 Nordeste 53 Nordeste 0 -- -- 89
2019-06-13 03:00:00 18.2 32 Este 56 Este 0 -- -- 91
2019-06-13 02:00:00 18 36 Este 58 Este 0 -- -- 94
2019-06-13 01:00:00 18.2 33 Este 58 Este 0 -- -- 94
2019-06-13 00:00:00 18.3 32 Este 53 Este 0 -- -- 93
2019-06-12 23:00:00 18.4 33 Este 53 Este 0 -- -- 93
2019-06-12 22:00:00 18.2 36 Este 53 Este 0 -- -- 90
2019-06-12 21:00:00 18.9 35 Este 55 Este 0 -- -- 86
2019-06-12 20:00:00 19.7 34 Este 53 Este 0 -- -- 83
2019-06-12 19:00:00 20.6 36 Este 55 Este 0 -- -- 80
2019-06-12 18:00:00 21.1 35 Este 57 Nordeste 0 -- -- 76
2019-06-12 17:00:00 21.5 36 Este 57 Este 0 -- -- 73
2019-06-12 16:00:00 21.3 37 Este 60 Este 0 -- -- 72
2019-06-12 15:00:00 21.5 39 Este 62 Este 0 -- -- 70
2019-06-12 14:00:00 22.4 33 Este 57 Este 0 -- -- 67
2019-06-12 13:00:00 21.7 39 Este 58 Este 0 -- -- 72
2019-06-12 12:00:00 21.5 36 Este 59 Este 0 -- -- 74
2019-06-12 11:00:00 20.9 32 Nordeste 61 Este 0 -- -- 77
2019-06-12 10:00:00 20.2 35 Nordeste 62 Este 0 -- -- 82
2019-06-12 09:00:00 18.8 30 Nordeste 56 Nordeste 0 -- -- 88
2019-06-12 08:00:00 18.6 22 Nordeste 49 Este 0 -- -- 89
2019-06-12 07:00:00 18.5 25 Nordeste 46 Este 0 -- -- 89
2019-06-12 06:00:00 18.5 16 Nordeste 29 Nordeste 0 -- -- 89
2019-06-12 05:00:00 16.5 18 Norte 30 Nordeste 0 -- -- 94
2019-06-12 04:00:00 16.9 8 Noroeste 14 Noroeste 0 -- -- 94
2019-06-12 03:00:00 17.2 9 Noroeste 20 Oeste 0 -- -- 94
2019-06-12 02:00:00 17.5 9 Oeste 17 Oeste 0 -- -- 95
2019-06-12 01:00:00 18 12 Oeste 23 Oeste 0 -- -- 92
2019-06-12 00:00:00 18 16 Oeste 26 Oeste 0 -- -- 91
2019-06-11 23:00:00 18.2 15 Oeste 30 Oeste 0 -- -- 85
2019-06-11 22:00:00 18.4 20 Oeste 30 Oeste 0 -- -- 85
2019-06-11 21:00:00 18.9 17 Oeste 28 Oeste 0 -- -- 83
2019-06-11 20:00:00 19.6 20 Oeste 31 Oeste 0 -- -- 78
2019-06-11 19:00:00 20.2 21 Oeste 32 Sudoeste 0 -- -- 74
2019-06-11 18:00:00 20 20 Oeste 37 Noroeste 0 -- -- 73
2019-06-11 17:00:00 20.1 21 Oeste 36 Oeste 0 -- -- 72
2019-06-11 16:00:00 19.6 28 Oeste 44 Oeste 0 -- -- 73
2019-06-11 15:00:00 19.1 24 Oeste 44 Oeste 0 -- -- 74
2019-06-11 14:00:00 18.6 25 Oeste 39 Oeste 0 -- -- 72
2019-06-11 13:00:00 19.3 21 Oeste 35 Oeste 0 -- -- 71
2019-06-11 12:00:00 19.5 14 Noroeste 29 Oeste 0 -- -- 73
2019-06-11 11:00:00 18.4 18 Oeste 40 Sudoeste 0 -- -- 76
2019-06-11 10:00:00 17.9 28 Sudoeste 47 Sudoeste 0 -- -- 86
2019-06-11 09:00:00 17.1 26 Sudoeste 42 Sudoeste 0 -- -- 89
2019-06-11 08:00:00 16.8 26 Sudoeste 40 Sudoeste 0 -- -- 91
2019-06-11 07:00:00 17.2 25 Sudoeste 41 Sudoeste 0 -- -- 89
2019-06-11 06:00:00 17.2 23 Sudoeste 39 Sudoeste 0 -- -- 91
2019-06-11 05:00:00 17.4 21 Sudoeste 32 Sudoeste 0 -- -- 90
2019-06-11 04:00:00 17.6 16 Sudoeste 25 Sudoeste 0 -- -- 91
2019-06-11 03:00:00 16.5 7 Oeste 19 Oeste 0 -- -- 90
2019-06-11 02:00:00 16.9 10 Oeste 20 Noroeste 0 -- -- 90
2019-06-11 01:00:00 17.3 15 Oeste 28 Oeste 0 -- -- 86
2019-06-11 00:00:00 17.6 13 Oeste 25 Oeste 0 -- -- 85
2019-06-10 23:00:00 17.9 18 Oeste 31 Oeste 0 -- -- 82
2019-06-10 22:00:00 18.1 18 Oeste 33 Noroeste 0 -- -- 84
2019-06-10 21:00:00 18.8 21 Oeste 35 Oeste 0 -- -- 80
2019-06-10 20:00:00 19.4 19 Oeste 31 Oeste 0 -- -- 78
2019-06-10 19:00:00 20.4 18 Oeste 35 Oeste 0 -- -- 74
2019-06-10 18:00:00 20.2 23 Oeste 37 Oeste 0 -- -- 72
2019-06-10 17:00:00 20 19 Oeste 37 Oeste 0 -- -- 74
2019-06-10 16:00:00 19.8 23 Oeste 36 Oeste 0 -- -- 76
2019-06-10 15:00:00 20.6 17 Oeste 37 Oeste 0 -- -- 76
2019-06-10 14:00:00 19.7 17 Oeste 32 Oeste 0 -- -- 76
2019-06-10 13:00:00 19.7 23 Oeste 34 Oeste 0 -- -- 76
2019-06-10 12:00:00 19.6 24 Oeste 33 Oeste 0 -- -- 78
2019-06-10 11:00:00 19.6 15 Oeste 28 Oeste 0 -- -- 78
2019-06-10 10:00:00 18 14 Oeste 24 Oeste 0 -- -- 86
2019-06-10 09:00:00 17.8 13 Oeste 23 Oeste 0 -- -- 86
2019-06-10 08:00:00 17.5 9 Oeste 17 Oeste 0 -- -- 89
2019-06-10 07:00:00 17.2 9 Oeste 23 Oeste 0 -- -- 88
2019-06-10 06:00:00 17.7 10 Oeste 22 Oeste 0 -- -- 86
2019-06-10 05:00:00 17.9 8 Oeste 33 Oeste 0 -- -- 88
2019-06-10 04:00:00 18.2 20 Sudoeste 38 Sudoeste 0 -- -- 90
2019-06-10 03:00:00 17.9 22 Sudoeste 36 Sudoeste 0 -- -- 92
2019-06-10 02:00:00 18.2 19 Sudoeste 36 Sudoeste 0 -- -- 91
2019-06-10 01:00:00 18.2 17 Sudoeste 28 Sudoeste 0 -- -- 89
2019-06-10 00:00:00 18 15 Oeste 21 Oeste 0 -- -- 85
2019-06-09 23:00:00 18 14 Oeste 25 Oeste 0 -- -- 83
2019-06-09 22:00:00 18.2 17 Oeste 37 Oeste 0 -- -- 77
2019-06-09 21:00:00 19 24 Oeste 35 Oeste 0 -- -- 71
2019-06-09 20:00:00 19.7 20 Oeste 36 Oeste 0 -- -- 68
2019-06-09 19:00:00 19.9 20 Oeste 35 Oeste 0 -- -- 68
2019-06-09 18:00:00 19.9 23 Oeste 34 Oeste 0 -- -- 72
2019-06-09 17:00:00 20.5 19 Oeste 36 Oeste 0 -- -- 74
2019-06-09 16:00:00 20.5 25 Oeste 36 Oeste 0 -- -- 74
2019-06-09 15:00:00 19.8 24 Oeste 35 Oeste 0 -- -- 75
2019-06-09 14:00:00 19.7 23 Oeste 35 Oeste 0 -- -- 72
2019-06-09 13:00:00 20.4 18 Oeste 32 Oeste 0 -- -- 76
2019-06-09 12:00:00 19.4 23 Oeste 33 Oeste 0 -- -- 81
2019-06-09 11:00:00 19 22 Oeste 32 Oeste 0 -- -- 84
2019-06-09 10:00:00 18.7 13 Sudoeste 26 Sudoeste 0 -- -- 85
2019-06-09 09:00:00 18.6 17 Sudoeste 27 Sudoeste 0 -- -- 86
2019-06-09 08:00:00 18.4 10 Sur 18 Sur 0 -- -- 89
2019-06-09 07:00:00 18.7 3 Sur 14 Este 0 -- -- 95
2019-06-09 06:00:00 18.9 9 Este 15 Este 0 -- -- 95
2019-06-09 05:00:00 18.9 10 Nordeste 21 Nordeste 0 -- -- 94
2019-06-09 04:00:00 19.1 12 Este 28 Este 0 -- -- 91
2019-06-09 03:00:00 19.3 15 Este 27 Este 0 -- -- 90
2019-06-09 02:00:00 19.6 12 Nordeste 24 Este 0 -- -- 89
2019-06-09 01:00:00 19.6 15 Este 37 Este 0 -- -- 90
2019-06-09 00:00:00 19.6 22 Este 35 Este 0 -- -- 90
2019-06-08 23:00:00 19.5 21 Este 35 Este 0 -- -- 90
2019-06-08 22:00:00 19.4 19 Este 34 Este 0 -- -- 88
2019-06-08 21:00:00 20 19 Este 37 Este 0 -- -- 82
2019-06-08 20:00:00 20.2 22 Este 42 Este 0 -- -- 85
2019-06-08 19:00:00 20.5 29 Este 48 Este 0 -- -- 85
2019-06-08 18:00:00 20.9 28 Este 45 Este 0 -- -- 83
2019-06-08 17:00:00 21.8 27 Este 46 Este 0 -- -- 74
2019-06-08 16:00:00 21.4 30 Este 40 Este 0 -- -- 75
2019-06-08 15:00:00 23 23 Este 38 Este 0 -- -- 66
2019-06-08 14:00:00 22.5 25 Este 40 Este 0 -- -- 71
2019-06-08 13:00:00 20.8 26 Este 39 Este 0 -- -- 80
2019-06-08 12:00:00 20.1 23 Este 31 Este 0 -- -- 85
2019-06-08 11:00:00 20.1 5 Sur 11 Este 0 -- -- 74
2019-06-08 10:00:00 19.9 5 Sudoeste 14 Noroeste 0 -- -- 76
2019-06-08 09:00:00 18.5 9 Norte 13 Norte 0 -- -- 83
2019-06-08 08:00:00 16.1 8 Norte 14 Noroeste 0 -- -- 89
2019-06-08 07:00:00 15.5 10 Norte 13 Norte 0 -- -- 90
2019-06-08 06:00:00 15.7 9 Norte 12 Norte 0 -- -- 91
2019-06-08 05:00:00 15.6 8 Norte 14 Oeste 0 -- -- 89
2019-06-08 04:00:00 17.2 9 Oeste 17 Oeste 0 -- -- 88
2019-06-08 03:00:00 17.3 6 Oeste 15 Noroeste 0 -- -- 86
2019-06-08 02:00:00 17.3 5 Noroeste 17 Oeste 0 -- -- 84
2019-06-08 01:00:00 17.4 8 Oeste 17 Oeste 0 -- -- 84
2019-06-08 00:00:00 17.6 9 Oeste 23 Oeste 0 -- -- 89
2019-06-07 23:00:00 18 16 Oeste 25 Oeste 0 -- -- 88
2019-06-07 22:00:00 18.1 17 Oeste 33 Oeste 0 -- -- 85
2019-06-07 21:00:00 19.1 21 Oeste 31 Oeste 0 -- -- 76
2019-06-07 20:00:00 20.1 19 Oeste 32 Oeste 0 -- -- 68
2019-06-07 19:00:00 20.5 15 Oeste 30 Oeste 0 -- -- 66
2019-06-07 18:00:00 20.8 15 Oeste 33 Oeste 0 -- -- 66
2019-06-07 17:00:00 21 19 Oeste 37 Oeste 0 -- -- 65
2019-06-07 16:00:00 20.8 20 Oeste 33 Sudoeste 0 -- -- 67
2019-06-07 15:00:00 21 19 Oeste 35 Sudoeste 0 -- -- 67
2019-06-07 14:00:00 21.3 18 Oeste 32 Oeste 0 -- -- 67
2019-06-07 13:00:00 20.9 23 Sudoeste 32 Oeste 0 -- -- 65
2019-06-07 12:00:00 20.1 15 Oeste 27 Oeste 0 -- -- 68
2019-06-07 11:00:00 19.4 15 Oeste 25 Oeste 0 -- -- 77
2019-06-07 10:00:00 17.8 14 Oeste 30 Oeste 0 -- -- 97
2019-06-07 09:00:00 17.4 9 Oeste 23 Sudoeste 0 -- -- 96
2019-06-07 08:00:00 17.1 16 Sudoeste 27 Oeste 0 -- -- 92
2019-06-07 07:00:00 17.8 13 Sudoeste 25 Oeste 0 -- -- 88
2019-06-07 06:00:00 17.8 16 Oeste 30 Oeste 0 -- -- 86
2019-06-07 05:00:00 17.7 17 Oeste 28 Oeste 0 -- -- 86
2019-06-07 04:00:00 17.7 18 Oeste 29 Oeste 0 -- -- 86
2019-06-07 03:00:00 17.7 18 Oeste 31 Oeste 0 -- -- 85
2019-06-07 02:00:00 17.8 20 Oeste 32 Oeste 0 -- -- 84
2019-06-07 01:00:00 17.9 21 Oeste 32 Oeste 0 -- -- 84
2019-06-07 00:00:00 17.8 17 Oeste 34 Oeste 0 -- -- 84
2019-06-06 23:00:00 17.8 16 Oeste 32 Oeste 0 -- -- 82
2019-06-06 22:00:00 17.9 18 Oeste 32 Oeste 0 -- -- 74
2019-06-06 21:00:00 18.6 18 Oeste 35 Oeste 0 -- -- 67
2019-06-06 20:00:00 19.4 18 Oeste 35 Oeste 0 -- -- 62
2019-06-06 19:00:00 19.4 23 Oeste 39 Oeste 0 -- -- 62
2019-06-06 18:00:00 19.5 24 Oeste 43 Oeste 0 -- -- 63
2019-06-06 17:00:00 20.1 18 Oeste 35 Oeste 0 -- -- 65
2019-06-06 16:00:00 20 17 Oeste 36 Sudoeste 0 -- -- 67
2019-06-06 15:00:00 21.3 13 Oeste 28 Oeste 0 -- -- 59
2019-06-06 14:00:00 20.3 14 Oeste 29 Sudoeste 0 -- -- 61
2019-06-06 13:00:00 19.9 21 Sudoeste 33 Sudoeste 0 -- -- 58
2019-06-06 12:00:00 20.2 12 Sudoeste 24 Sudoeste 0 -- -- 59
2019-06-06 11:00:00 18.3 11 Sudoeste 15 Oeste 0 -- -- 65
2019-06-06 10:00:00 18.4 8 Oeste 12 Oeste 0 -- -- 68
2019-06-06 09:00:00 16.5 3 Noroeste 8 Oeste 0 -- -- 84
2019-06-06 08:00:00 14.5 6 Noroeste 9 Noroeste 0 -- -- 94
2019-06-06 07:00:00 14.9 4 Noroeste 10 Noroeste 0 -- -- 94
2019-06-06 06:00:00 15.9 8 Noroeste 20 Sudoeste 0 -- -- 90
2019-06-06 05:00:00 16.8 12 Sudoeste 24 Sudoeste 0 -- -- 88
2019-06-06 04:00:00 16.8 14 Sudoeste 24 Sudoeste 0 -- -- 86
2019-06-06 03:00:00 16.4 10 Oeste 16 Oeste 0 -- -- 84
2019-06-06 02:00:00 15.9 5 Noroeste 14 Oeste 0 -- -- 79
2019-06-06 01:00:00 17.1 8 Noroeste 19 Noroeste 0 -- -- 78
2019-06-06 00:00:00 17.4 12 Noroeste 21 Noroeste 0 -- -- 77
2019-06-05 23:00:00 17.7 13 Noroeste 26 Noroeste 0 -- -- 78
2019-06-05 22:00:00 18 18 Oeste 32 Oeste 0 -- -- 76
2019-06-05 21:00:00 18.8 18 Oeste 31 Oeste 0 -- -- 72
2019-06-05 20:00:00 19 18 Oeste 37 Oeste 0 -- -- 71
2019-06-05 19:00:00 19.1 18 Oeste 37 Oeste 0 -- -- 68
2019-06-05 18:00:00 19.9 18 Oeste 44 Oeste 0 -- -- 65
2019-06-05 17:00:00 19.1 30 Oeste 46 Oeste 0 -- -- 66
2019-06-05 16:00:00 18.9 32 Oeste 53 Oeste 0 -- -- 67
2019-06-05 15:00:00 19.3 27 Oeste 50 Oeste 0 -- -- 68
2019-06-05 14:00:00 19 27 Oeste 48 Oeste 0 -- -- 67
2019-06-05 13:00:00 19 30 Oeste 49 Oeste 0 -- -- 67
2019-06-05 12:00:00 19.2 26 Oeste 41 Oeste 0 -- -- 62
2019-06-05 11:00:00 18.8 22 Oeste 37 Oeste 0 -- -- 52
2019-06-05 10:00:00 17.6 22 Oeste 35 Oeste 0 -- -- 59
2019-06-05 09:00:00 16.4 14 Noroeste 39 Norte 0 -- -- 62
2019-06-05 08:00:00 15.9 12 Norte 37 Oeste 0 -- -- 62
2019-06-05 07:00:00 16.7 16 Noroeste 39 Oeste 0 -- -- 63
2019-06-05 06:00:00 17.6 16 Noroeste 31 Noroeste 0 -- -- 62
2019-06-05 05:00:00 18.2 15 Oeste 30 Oeste 0 -- -- 76
2019-06-05 04:00:00 18.3 20 Oeste 39 Sudoeste 0 -- -- 86
2019-06-05 03:00:00 18.3 23 Sudoeste 41 Sudoeste 0 -- -- 93
2019-06-05 02:00:00 18.4 30 Sudoeste 45 Sudoeste 0 -- -- 96
2019-06-05 01:00:00 18.5 28 Sudoeste 42 Sudoeste 0 -- -- 94
2019-06-05 00:00:00 18.7 19 Sudoeste 35 Sudoeste 0 -- -- 94
2019-06-04 23:00:00 18.7 21 Sudoeste 33 Oeste 0 -- -- 94
2019-06-04 22:00:00 18.6 22 Oeste 32 Oeste 0 -- -- 94
2019-06-04 21:00:00 19 21 Oeste 32 Oeste 0 -- -- 91
2019-06-04 20:00:00 19.8 18 Oeste 31 Oeste 0 -- -- 86
2019-06-04 19:00:00 19.9 21 Oeste 30 Oeste 0 -- -- 88
2019-06-04 18:00:00 20.3 21 Oeste 34 Oeste 0 -- -- 85
2019-06-04 17:00:00 20.4 23 Oeste 34 Oeste 0 -- -- 84
2019-06-04 16:00:00 20.2 21 Oeste 33 Oeste 0 -- -- 84
2019-06-04 15:00:00 20.4 19 Oeste 32 Oeste 0 -- -- 84
2019-06-04 14:00:00 20.5 21 Oeste 32 Oeste 0 -- -- 86
2019-06-04 13:00:00 20.6 19 Sudoeste 28 Sudoeste 0 -- -- 88
2019-06-04 12:00:00 19.9 17 Oeste 27 Oeste 0 -- -- 90
2019-06-04 11:00:00 19.4 18 Oeste 26 Oeste 0 -- -- 91
2019-06-04 10:00:00 18.8 12 Oeste 23 Sudoeste 0 -- -- 92
2019-06-04 09:00:00 18.9 10 Noroeste 19 Noroeste 0 -- -- 76
2019-06-04 08:00:00 17.3 12 Noroeste 19 Noroeste 0 -- -- 83
2019-06-04 07:00:00 15 9 Noroeste 15 Noroeste 0 -- -- 79
2019-06-04 06:00:00 13.8 9 Norte 11 Norte 0 -- -- 73
2019-06-04 05:00:00 13.7 5 Norte 9 Este 0 -- -- 88
2019-06-04 04:00:00 16.7 9 Este 22 Este 0 -- -- 86
2019-06-04 03:00:00 16.8 13 Este 19 Este 0 -- -- 83
2019-06-04 02:00:00 14 2 Nordeste 6 Nordeste 0 -- -- 67
2019-06-04 01:00:00 16 3 Norte 12 Nordeste 0 -- -- 59
2019-06-04 00:00:00 19.4 11 Nordeste 28 Nordeste 0 -- -- 52
2019-06-03 23:00:00 18.3 18 Nordeste 40 Este 0 -- -- 76
2019-06-03 22:00:00 18.5 24 Este 42 Este 0 -- -- 76
2019-06-03 21:00:00 18.9 30 Este 52 Este 0 -- -- 85
2019-06-03 20:00:00 19.4 32 Este 52 Este 0 -- -- 83
2019-06-03 19:00:00 20.2 34 Este 53 Este 0 -- -- 80
2019-06-03 18:00:00 20.6 34 Este 54 Este 0 -- -- 78
2019-06-03 17:00:00 21.1 34 Este 57 Este 0 -- -- 78
2019-06-03 16:00:00 21.1 33 Este 51 Este 0 -- -- 76
2019-06-03 15:00:00 21.1 34 Este 56 Este 0 -- -- 74
2019-06-03 14:00:00 21.1 36 Este 53 Este 0 -- -- 76
2019-06-03 13:00:00 21 35 Este 55 Este 0 -- -- 77
2019-06-03 12:00:00 20.1 39 Este 59 Este 0 -- -- 79
2019-06-03 11:00:00 19.9 40 Este 63 Este 0 -- -- 80
2019-06-03 10:00:00 19.2 40 Este 62 Este 0 -- -- 84
2019-06-03 09:00:00 18.4 41 Este 57 Este 0 -- -- 89
2019-06-03 08:00:00 17.6 35 Este 59 Este 0 -- -- 94
2019-06-03 07:00:00 17.3 36 Este 58 Este 0 -- -- 95
2019-06-03 06:00:00 17.5 37 Este 58 Este 0 -- -- 95
2019-06-03 05:00:00 17.6 37 Este 60 Este 0 -- -- 90
2019-06-03 04:00:00 18 41 Este 62 Este 0 -- -- 85
2019-06-03 03:00:00 18.2 37 Este 61 Este 0 -- -- 83
2019-06-03 02:00:00 18.3 42 Este 64 Este 0 -- -- 82
2019-06-03 01:00:00 18.5 40 Este 63 Este 0 -- -- 80
2019-06-03 00:00:00 18.7 40 Este 63 Este 0 -- -- 79
2019-06-02 23:00:00 18.7 39 Este 60 Este 0 -- -- 83
2019-06-02 22:00:00 19 39 Este 63 Este 0 -- -- 80
2019-06-02 21:00:00 19.3 40 Este 61 Este 0 -- -- 80
2019-06-02 20:00:00 20.1 42 Este 63 Este 0 -- -- 75
2019-06-02 19:00:00 20.9 44 Este 66 Este 0 -- -- 72
2019-06-02 18:00:00 21.3 45 Este 70 Este 0 -- -- 68
2019-06-02 17:00:00 21.5 43 Este 68 Este 0 -- -- 72
2019-06-02 16:00:00 22.1 39 Este 65 Este 0 -- -- 73
2019-06-02 15:00:00 21.5 41 Este 63 Este 0 -- -- 76
2019-06-02 14:00:00 20.9 42 Este 62 Este 0 -- -- 79
2019-06-02 13:00:00 21.1 37 Este 58 Este 0 -- -- 78
2019-06-02 12:00:00 20.3 38 Este 66 Este 0 -- -- 80
2019-06-02 11:00:00 20 38 Este 64 Este 0 -- -- 83
2019-06-02 10:00:00 19.3 43 Este 68 Este 0 -- -- 85
2019-06-02 09:00:00 18.4 44 Este 68 Este 0 -- -- 88
2019-06-02 08:00:00 18.4 40 Este 68 Este 0 -- -- 84
2019-06-02 07:00:00 18.2 41 Este 64 Este 0 -- -- 82
2019-06-02 06:00:00 18.8 42 Este 67 Este 0 -- -- 68
2019-06-02 05:00:00 19.4 40 Este 68 Este 0 -- -- 65
2019-06-02 04:00:00 19.6 39 Este 67 Este 0 -- -- 62
2019-06-02 03:00:00 19.5 40 Este 68 Este 0 -- -- 65
2019-06-02 02:00:00 19.5 41 Este 71 Este 0 -- -- 65
2019-06-02 01:00:00 19.3 44 Este 70 Este 0 -- -- 67
2019-06-02 00:00:00 18.8 49 Este 72 Este 0 -- -- 79
2019-06-01 23:00:00 18.4 45 Este 71 Este 0 -- -- 85
2019-06-01 22:00:00 18.5 45 Este 72 Este 0 -- -- 88
2019-06-01 21:00:00 18.8 46 Este 71 Este 0 -- -- 85
2019-06-01 20:00:00 19.7 45 Este 76 Este 0 -- -- 80
2019-06-01 19:00:00 20.4 49 Este 76 Este 0 -- -- 77
2019-06-01 18:00:00 21.1 53 Este 77 Este 0 -- -- 73
2019-06-01 17:00:00 21.3 43 Este 70 Este 0 -- -- 72
2019-06-01 16:00:00 21.2 46 Este 72 Nordeste 0 -- -- 73
2019-06-01 15:00:00 21.1 48 Este 74 Este 0 -- -- 72
2019-06-01 14:00:00 21.1 47 Este 74 Este 0 -- -- 71
2019-06-01 13:00:00 20.9 48 Este 78 Este 0 -- -- 76
2019-06-01 12:00:00 20.8 51 Este 75 Este 0 -- -- 76
2019-06-01 11:00:00 20.1 48 Este 75 Este 0 -- -- 79
2019-06-01 10:00:00 19.6 41 Este 70 Este 0 -- -- 83
2019-06-01 09:00:00 18.3 41 Este 75 Este 0 -- -- 86
2019-06-01 08:00:00 17.9 41 Este 70 Este 0 -- -- 86
2019-06-01 07:00:00 18 40 Este 72 Este 0 -- -- 78
2019-06-01 06:00:00 18.9 40 Nordeste 77 Este 0 -- -- 67
2019-06-01 05:00:00 18.5 45 Nordeste 75 Este 0 -- -- 73
2019-06-01 04:00:00 18.7 45 Este 77 Este 0 -- -- 72
2019-06-01 03:00:00 18.9 45 Este 73 Este 0 -- -- 71
2019-06-01 02:00:00 18.9 48 Este 74 Este 0 -- -- 72
2019-06-01 01:00:00 18.6 46 Este 78 Este 0 -- -- 78
2019-06-01 00:00:00 18.4 45 Este 70 Nordeste 0 -- -- 83
2019-05-31 23:00:00 18.2 44 Este 75 Este 0 -- -- 85
2019-05-31 22:00:00 18.2 46 Este 77 Este 0 -- -- 85
2019-05-31 21:00:00 18.7 50 Este 76 Este 0 -- -- 82
2019-05-31 20:00:00 19.4 54 Este 81 Este 0 -- -- 78
2019-05-31 19:00:00 19.9 47 Este 76 Este 0 -- -- 77
2019-05-31 18:00:00 20.6 49 Este 86 Este 0 -- -- 76
2019-05-31 17:00:00 20.9 49 Este 80 Este 0 -- -- 74
2019-05-31 16:00:00 21.1 52 Este 77 Este 0 -- -- 73
2019-05-31 15:00:00 21 50 Este 77 Este 0 -- -- 74
2019-05-31 14:00:00 20.9 52 Este 82 Este 0 -- -- 74
2019-05-31 13:00:00 21 51 Este 88 Este 0 -- -- 73
2019-05-31 12:00:00 20.6 53 Este 91 Este 0 -- -- 74
2019-05-31 11:00:00 20 57 Este 87 Este 0 -- -- 76
2019-05-31 10:00:00 19.4 47 Este 80 Este 0 -- -- 79
2019-05-31 09:00:00 18.8 49 Este 76 Este 0 -- -- 82
2019-05-31 08:00:00 17.9 42 Este 77 Este 0 -- -- 88
2019-05-31 07:00:00 17.6 44 Este 74 Este 0 -- -- 90
2019-05-31 06:00:00 17.5 48 Este 75 Este 0 -- -- 91
2019-05-31 05:00:00 17.6 48 Este 76 Este 0 -- -- 89
2019-05-31 04:00:00 17.7 49 Este 83 Este 0 -- -- 90
2019-05-31 03:00:00 17.7 49 Este 80 Este 0 -- -- 90
2019-05-31 02:00:00 17.8 49 Este 81 Este 0 -- -- 89
2019-05-31 01:00:00 17.9 54 Este 78 Este 0 -- -- 89
2019-05-31 00:00:00 18 53 Este 79 Este 0.1 -- -- 86
2019-05-30 23:00:00 18.2 52 Este 77 Este 0 -- -- 85
2019-05-30 22:00:00 18 51 Este 86 Este 0 -- -- 86
2019-05-30 21:00:00 18.7 55 Este 82 Este 0 -- -- 80
2019-05-30 20:00:00 19.1 56 Este 105 Este 0 -- -- 79
2019-05-30 19:00:00 19.5 49 Este 84 Este 0 -- -- 78
2019-05-30 18:00:00 20 51 Este 82 Nordeste 0 -- -- 77
2019-05-30 17:00:00 20.4 46 Este 82 Este 0 -- -- 74
2019-05-30 16:00:00 20.5 53 Este 80 Este 0 -- -- 73
2019-05-30 15:00:00 20.7 46 Este 76 Este 0 -- -- 72
2019-05-30 14:00:00 20.6 50 Este 82 Este 0 -- -- 76
2019-05-30 13:00:00 20.4 58 Este 86 Este 0 -- -- 76
2019-05-30 12:00:00 20.1 51 Este 81 Este 0 -- -- 78
2019-05-30 11:00:00 19.5 49 Este 73 Este 0 -- -- 82
2019-05-30 10:00:00 19.1 47 Este 73 Este 0 -- -- 86
2019-05-30 09:00:00 18.3 51 Este 76 Este 0 -- -- 89
2019-05-30 08:00:00 18.2 49 Este 80 Este 0 -- -- 84
2019-05-30 07:00:00 18.4 48 Nordeste 76 Este 0 -- -- 78
2019-05-30 06:00:00 18.3 44 Nordeste 77 Este 0 -- -- 83
2019-05-30 05:00:00 18.1 41 Este 73 Este 0 -- -- 86
2019-05-30 04:00:00 18.2 46 Este 75 Este 0 -- -- 90
2019-05-30 03:00:00 18.1 45 Este 73 Este 0 -- -- 91
2019-05-30 02:00:00 18.3 41 Este 69 Este 0 -- -- 90
2019-05-30 01:00:00 18.5 42 Este 68 Este 0 -- -- 91
2019-05-30 00:00:00 18.7 44 Este 69 Este 0 -- -- 88
2019-05-29 23:00:00 19 42 Este 66 Este 0 -- -- 85
2019-05-29 22:00:00 18.9 41 Este 64 Este 0 -- -- 85
2019-05-29 21:00:00 19.2 39 Este 60 Este 0 -- -- 82
2019-05-29 20:00:00 20.4 32 Este 59 Este 0 -- -- 74
2019-05-29 19:00:00 20.7 40 Este 68 Este 0 -- -- 74
2019-05-29 18:00:00 21.1 48 Este 68 Este 0 -- -- 74
2019-05-29 17:00:00 21.4 51 Este 77 Este 0 -- -- 73
2019-05-29 16:00:00 21.9 52 Este 75 Este 0 -- -- 71
2019-05-29 15:00:00 22 49 Este 75 Este 0 -- -- 68
2019-05-29 14:00:00 22.5 43 Este 75 Este 0 -- -- 67
2019-05-29 13:00:00 22.2 47 Este 78 Este 0 -- -- 68
2019-05-29 12:00:00 21.8 44 Este 73 Este 0 -- -- 72
2019-05-29 11:00:00 21.2 45 Este 72 Este 0 -- -- 74
2019-05-29 10:00:00 20.5 47 Este 70 Este 0 -- -- 80
2019-05-29 09:00:00 19.9 44 Este 69 Este 0 -- -- 84
2019-05-29 08:00:00 19.3 37 Este 60 Este 0 -- -- 86
2019-05-29 07:00:00 19.2 41 Este 66 Este 0 -- -- 89
2019-05-29 06:00:00 19.1 41 Este 62 Este 0 -- -- 90
2019-05-29 05:00:00 18.8 28 Este 54 Este 0 -- -- 89
2019-05-29 04:00:00 20.5 28 Este 51 Este 0 -- -- 66
2019-05-29 03:00:00 20.1 22 Este 33 Nordeste 0 -- -- 73
2019-05-29 02:00:00 18.1 15 Este 24 Este 0 -- -- 95
2019-05-29 01:00:00 17.9 12 Este 17 Este 0 -- -- 99
2019-05-29 00:00:00 17.7 2 Sudeste 6 Este 0 -- -- 93
2019-05-28 23:00:00 18.6 3 Nordeste 16 Oeste 0 -- -- 93
2019-05-28 22:00:00 19.3 8 Noroeste 13 Noroeste 0 -- -- 91
2019-05-28 21:00:00 20.9 5 Oeste 17 Oeste 0 -- -- 83
2019-05-28 20:00:00 21.4 9 Oeste 19 Oeste 0 -- -- 83
2019-05-28 19:00:00 21.9 11 Oeste 20 Oeste 0 -- -- 78
2019-05-28 18:00:00 22.4 12 Oeste 22 Oeste 0 -- -- 75
2019-05-28 17:00:00 22.4 14 Oeste 25 Oeste 0 -- -- 74
2019-05-28 16:00:00 23.1 14 Oeste 26 Oeste 0 -- -- 68
2019-05-28 15:00:00 23.1 14 Oeste 26 Oeste 0 -- -- 68
2019-05-28 14:00:00 20.8 16 Oeste 25 Oeste 0 -- -- 85
2019-05-28 13:00:00 19.6 15 Oeste 24 Oeste 0 -- -- 91
2019-05-28 12:00:00 19.3 17 Oeste 27 Oeste 0 -- -- 91
2019-05-28 11:00:00 19.9 15 Oeste 24 Noroeste 0 -- -- 89
2019-05-28 10:00:00 19.9 14 Oeste 24 Oeste 0 -- -- 86
2019-05-28 09:00:00 19.7 15 Noroeste 22 Oeste 0 -- -- 89
2019-05-28 08:00:00 19.4 10 Noroeste 17 Noroeste 0 -- -- 82
2019-05-28 07:00:00 18.5 12 Noroeste 19 Noroeste 0 -- -- 86
2019-05-28 06:00:00 18.6 9 Noroeste 15 Noroeste 0 -- -- 91
2019-05-28 05:00:00 19 9 Noroeste 14 Noroeste 0 -- -- 82
2019-05-28 04:00:00 19.3 9 Noroeste 16 Noroeste 0 -- -- 79
2019-05-28 03:00:00 19.4 8 Noroeste 12 Noroeste 0 -- -- 80
2019-05-28 02:00:00 19.2 4 Oeste 12 Sudoeste 0 -- -- 83
2019-05-28 01:00:00 19.7 7 Sudoeste 17 Oeste 0 -- -- 84
2019-05-28 00:00:00 20 9 Oeste 21 Sudoeste 0 -- -- 84
2019-05-27 23:00:00 19.8 11 Sudoeste 19 Oeste 0 -- -- 88
2019-05-27 22:00:00 20.3 10 Oeste 19 Oeste 0 -- -- 84
2019-05-27 21:00:00 21.4 11 Oeste 19 Oeste 0 -- -- 77
2019-05-27 20:00:00 22.5 12 Oeste 23 Oeste 0 -- -- 68
2019-05-27 19:00:00 23.4 18 Oeste 27 Oeste 0 -- -- 56
2019-05-27 18:00:00 23.5 13 Oeste 22 Oeste 0 -- -- 55
2019-05-27 17:00:00 27.1 13 Este 29 Este 0 -- -- 45
2019-05-27 16:00:00 25.9 20 Este 29 Este 0 -- -- 44
2019-05-27 15:00:00 25.8 23 Este 32 Este 0 -- -- 44
2019-05-27 14:00:00 24.8 19 Este 31 Este 0 -- -- 47
2019-05-27 13:00:00 24.8 22 Este 32 Este 0 -- -- 47
2019-05-27 12:00:00 24.7 18 Este 28 Este 0 -- -- 46
2019-05-27 11:00:00 24.1 18 Este 34 Este 0 -- -- 48
2019-05-27 10:00:00 22.3 23 Este 33 Este 0 -- -- 53
2019-05-27 09:00:00 21.1 22 Este 32 Este 0 -- -- 54
2019-05-27 08:00:00 19.4 18 Este 32 Este 0 -- -- 59
2019-05-27 07:00:00 18.6 21 Este 33 Este 0 -- -- 58
2019-05-27 06:00:00 18.7 17 Este 37 Este 0 -- -- 58
2019-05-27 05:00:00 19.1 23 Este 38 Este 0 -- -- 55
2019-05-27 04:00:00 19.4 23 Este 37 Este 0 -- -- 52
2019-05-27 03:00:00 19.4 24 Este 38 Este 0 -- -- 56
2019-05-27 02:00:00 18.9 24 Este 37 Este 0 -- -- 65
2019-05-27 01:00:00 19 12 Nordeste 25 Este 0 -- -- 64
2019-05-27 00:00:00 19.4 16 Este 29 Este 0 -- -- 58
2019-05-26 23:00:00 20.4 17 Este 35 Este 0 -- -- 49
2019-05-26 22:00:00 20.5 22 Este 36 Este 0 -- -- 53
2019-05-26 21:00:00 20.6 25 Este 39 Este 0 -- -- 59
2019-05-26 20:00:00 21.6 25 Este 39 Este 0 -- -- 54
2019-05-26 19:00:00 21.3 29 Este 43 Este 0 -- -- 63
2019-05-26 18:00:00 21.4 30 Este 48 Este 0 -- -- 66
2019-05-26 17:00:00 21.9 28 Este 46 Este 0 -- -- 65
2019-05-26 16:00:00 21.7 33 Este 48 Este 0 -- -- 61
2019-05-26 15:00:00 21.9 30 Este 50 Este 0 -- -- 65
2019-05-26 14:00:00 21.9 35 Este 51 Este 0 -- -- 61
2019-05-26 13:00:00 21.5 36 Este 53 Este 0 -- -- 61
2019-05-26 12:00:00 21.2 36 Este 54 Este 0 -- -- 57
2019-05-26 11:00:00 21.6 33 Este 53 Este 0 -- -- 58
2019-05-26 10:00:00 20.7 32 Este 50 Este 0 -- -- 58
2019-05-26 09:00:00 20.1 30 Este 48 Este 0 -- -- 60
2019-05-26 08:00:00 19.1 27 Este 46 Este 0 -- -- 66
2019-05-26 07:00:00 18.3 22 Este 42 Este 0 -- -- 71
2019-05-26 06:00:00 18.2 21 Nordeste 45 Este 0 -- -- 71
2019-05-26 05:00:00 18.5 25 Nordeste 44 Este 0 -- -- 70
2019-05-26 04:00:00 18.5 30 Nordeste 48 Este 0 -- -- 72
2019-05-26 03:00:00 18.3 29 Nordeste 48 Este 0 -- -- 74
2019-05-26 02:00:00 17.9 20 Nordeste 44 Este 0 -- -- 79
2019-05-26 01:00:00 18 30 Este 48 Este 0 -- -- 85
2019-05-26 00:00:00 17.9 31 Este 51 Este 0 -- -- 90